Terminal Aerodrome Forecast
Issued by NWS Wilmington, NC

Home | Current Version | Previous Version | Text Only | Print | Product List | Glossary On
Versions: 1 2 3 4 5 6 7 8 9 10 11 12 13 14
244
FTUS42 KILM 241120
TAFMYR
TAF
KMYR 241120Z 2412/2512 06006KT P6SM SKC
     FM241500 13007KT P6SM FEW250
     FM242000 17010KT P6SM FEW050
     FM250000 17006KT P6SM SKC=

USA.gov is the U.S. government's official web portal to all federal, state and local government web resources and services.